sensor_id;sensor_type;location;lat;lon;timestamp;P1;durP1;ratioP1;P2;durP2;ratioP2
49440;SDS011;35317;51.978;6.296;2023-03-23T00:02:41;2.80;;;1.92;;
49440;SDS011;35317;51.978;6.296;2023-03-23T00:07:43;2.67;;;1.65;;
49440;SDS011;35317;51.978;6.296;2023-03-23T00:12:45;4.68;;;2.10;;
49440;SDS011;35317;51.978;6.296;2023-03-23T00:17:49;3.25;;;2.10;;
49440;SDS011;35317;51.978;6.296;2023-03-23T00:22:51;3.25;;;1.45;;
49440;SDS011;35317;51.978;6.296;2023-03-23T00:27:51;2.45;;;1.52;;
49440;SDS011;35317;51.978;6.296;2023-03-23T00:32:52;2.97;;;1.75;;
49440;SDS011;35317;51.978;6.296;2023-03-23T00:37:53;2.25;;;1.63;;
49440;SDS011;35317;51.978;6.296;2023-03-23T00:42:55;3.28;;;1.73;;
49440;SDS011;35317;51.978;6.296;2023-03-23T00:47:56;3.22;;;2.05;;
49440;SDS011;35317;51.978;6.296;2023-03-23T00:53:06;1.65;;;1.35;;
49440;SDS011;35317;51.978;6.296;2023-03-23T00:58:08;4.13;;;1.95;;
49440;SDS011;35317;51.978;6.296;2023-03-23T01:03:09;3.38;;;2.00;;
49440;SDS011;35317;51.978;6.296;2023-03-23T01:08:18;4.30;;;2.30;;
49440;SDS011;35317;51.978;6.296;2023-03-23T01:13:19;3.22;;;2.13;;
49440;SDS011;35317;51.978;6.296;2023-03-23T01:18:22;2.13;;;1.40;;
49440;SDS011;35317;51.978;6.296;2023-03-23T01:23:23;2.55;;;1.60;;
49440;SDS011;35317;51.978;6.296;2023-03-23T01:28:24;2.15;;;1.40;;
49440;SDS011;35317;51.978;6.296;2023-03-23T01:33:25;2.80;;;1.85;;
49440;SDS011;35317;51.978;6.296;2023-03-23T01:38:26;1.98;;;1.63;;
49440;SDS011;35317;51.978;6.296;2023-03-23T01:43:26;4.50;;;1.70;;
49440;SDS011;35317;51.978;6.296;2023-03-23T01:48:29;3.40;;;1.88;;
49440;SDS011;35317;51.978;6.296;2023-03-23T01:53:38;3.28;;;2.13;;
49440;SDS011;35317;51.978;6.296;2023-03-23T01:58:46;2.95;;;2.13;;
49440;SDS011;35317;51.978;6.296;2023-03-23T02:03:47;2.97;;;1.77;;
49440;SDS011;35317;51.978;6.296;2023-03-23T02:08:49;4.40;;;1.98;;
49440;SDS011;35317;51.978;6.296;2023-03-23T02:13:51;3.10;;;2.35;;
49440;SDS011;35317;51.978;6.296;2023-03-23T02:18:57;3.63;;;2.00;;
49440;SDS011;35317;51.978;6.296;2023-03-23T02:29:51;4.60;;;3.08;;
49440;SDS011;35317;51.978;6.296;2023-03-23T02:34:56;3.90;;;2.75;;
49440;SDS011;35317;51.978;6.296;2023-03-23T02:40:05;4.57;;;3.50;;
49440;SDS011;35317;51.978;6.296;2023-03-23T02:45:32;5.30;;;3.15;;
49440;SDS011;35317;51.978;6.296;2023-03-23T02:50:54;3.10;;;1.60;;
49440;SDS011;35317;51.978;6.296;2023-03-23T02:55:56;3.42;;;2.22;;
49440;SDS011;35317;51.978;6.296;2023-03-23T03:00:58;4.63;;;2.00;;
49440;SDS011;35317;51.978;6.296;2023-03-23T03:06:10;2.65;;;1.90;;
49440;SDS011;35317;51.978;6.296;2023-03-23T03:11:26;3.30;;;2.08;;
49440;SDS011;35317;51.978;6.296;2023-03-23T03:21:48;4.20;;;1.90;;
49440;SDS011;35317;51.978;6.296;2023-03-23T03:26:51;2.38;;;1.75;;
49440;SDS011;35317;51.978;6.296;2023-03-23T03:31:57;2.72;;;1.75;;
49440;SDS011;35317;51.978;6.296;2023-03-23T03:37:01;2.45;;;1.80;;
49440;SDS011;35317;51.978;6.296;2023-03-23T03:42:05;2.72;;;1.77;;
49440;SDS011;35317;51.978;6.296;2023-03-23T03:47:06;3.40;;;1.80;;
49440;SDS011;35317;51.978;6.296;2023-03-23T03:52:07;2.35;;;1.80;;
49440;SDS011;35317;51.978;6.296;2023-03-23T03:57:08;1.70;;;1.50;;
49440;SDS011;35317;51.978;6.296;2023-03-23T04:02:09;2.60;;;1.70;;
49440;SDS011;35317;51.978;6.296;2023-03-23T04:07:13;3.45;;;2.30;;
49440;SDS011;35317;51.978;6.296;2023-03-23T04:12:16;2.20;;;1.73;;
49440;SDS011;35317;51.978;6.296;2023-03-23T04:17:17;2.85;;;1.90;;
49440;SDS011;35317;51.978;6.296;2023-03-23T04:22:17;2.35;;;1.65;;
49440;SDS011;35317;51.978;6.296;2023-03-23T04:27:18;2.67;;;1.80;;
49440;SDS011;35317;51.978;6.296;2023-03-23T04:32:19;2.05;;;1.60;;
49440;SDS011;35317;51.978;6.296;2023-03-23T04:37:20;2.78;;;2.03;;
49440;SDS011;35317;51.978;6.296;2023-03-23T04:42:26;2.40;;;1.90;;
49440;SDS011;35317;51.978;6.296;2023-03-23T04:47:31;2.67;;;1.97;;
49440;SDS011;35317;51.978;6.296;2023-03-23T04:52:40;3.95;;;1.90;;
49440;SDS011;35317;51.978;6.296;2023-03-23T04:57:45;1.98;;;1.60;;
49440;SDS011;35317;51.978;6.296;2023-03-23T05:02:47;1.85;;;1.50;;
49440;SDS011;35317;51.978;6.296;2023-03-23T05:07:51;1.88;;;1.38;;
49440;SDS011;35317;51.978;6.296;2023-03-23T05:12:52;2.90;;;1.77;;
49440;SDS011;35317;51.978;6.296;2023-03-23T05:17:54;3.03;;;1.80;;
49440;SDS011;35317;51.978;6.296;2023-03-23T05:22:55;2.47;;;1.23;;
49440;SDS011;35317;51.978;6.296;2023-03-23T05:27:57;1.67;;;1.10;;
49440;SDS011;35317;51.978;6.296;2023-03-23T05:32:59;1.92;;;1.30;;
49440;SDS011;35317;51.978;6.296;2023-03-23T05:38:00;2.13;;;1.08;;
49440;SDS011;35317;51.978;6.296;2023-03-23T05:43:01;4.00;;;1.23;;
49440;SDS011;35317;51.978;6.296;2023-03-23T05:48:02;2.33;;;1.30;;
49440;SDS011;35317;51.978;6.296;2023-03-23T05:53:03;1.50;;;0.90;;
49440;SDS011;35317;51.978;6.296;2023-03-23T05:58:04;3.90;;;1.67;;
49440;SDS011;35317;51.978;6.296;2023-03-23T06:03:05;1.58;;;0.77;;
49440;SDS011;35317;51.978;6.296;2023-03-23T06:08:05;2.58;;;0.60;;
49440;SDS011;35317;51.978;6.296;2023-03-23T06:13:07;2.70;;;1.10;;
49440;SDS011;35317;51.978;6.296;2023-03-23T06:18:08;1.55;;;0.60;;
49440;SDS011;35317;51.978;6.296;2023-03-23T06:23:09;1.48;;;0.93;;
49440;SDS011;35317;51.978;6.296;2023-03-23T06:28:10;2.58;;;0.98;;
49440;SDS011;35317;51.978;6.296;2023-03-23T06:33:11;3.35;;;0.70;;
49440;SDS011;35317;51.978;6.296;2023-03-23T06:38:12;3.00;;;0.70;;
49440;SDS011;35317;51.978;6.296;2023-03-23T06:43:13;1.23;;;0.60;;
49440;SDS011;35317;51.978;6.296;2023-03-23T06:48:14;1.50;;;0.75;;
49440;SDS011;35317;51.978;6.296;2023-03-23T06:53:14;4.80;;;1.05;;
49440;SDS011;35317;51.978;6.296;2023-03-23T06:58:17;1.75;;;0.82;;
49440;SDS011;35317;51.978;6.296;2023-03-23T07:03:18;1.23;;;0.70;;
49440;SDS011;35317;51.978;6.296;2023-03-23T07:08:18;0.98;;;0.77;;
49440;SDS011;35317;51.978;6.296;2023-03-23T07:13:20;2.13;;;0.93;;
49440;SDS011;35317;51.978;6.296;2023-03-23T07:18:21;1.33;;;0.80;;
49440;SDS011;35317;51.978;6.296;2023-03-23T07:23:22;2.05;;;0.82;;
49440;SDS011;35317;51.978;6.296;2023-03-23T07:28:23;1.95;;;1.02;;
49440;SDS011;35317;51.978;6.296;2023-03-23T07:33:24;2.92;;;1.05;;
49440;SDS011;35317;51.978;6.296;2023-03-23T07:38:25;1.77;;;1.00;;
49440;SDS011;35317;51.978;6.296;2023-03-23T07:43:27;6.32;;;1.10;;
49440;SDS011;35317;51.978;6.296;2023-03-23T07:48:28;2.70;;;0.85;;
49440;SDS011;35317;51.978;6.296;2023-03-23T07:53:29;2.20;;;0.98;;
49440;SDS011;35317;51.978;6.296;2023-03-23T07:58:30;1.73;;;0.70;;
49440;SDS011;35317;51.978;6.296;2023-03-23T08:03:31;1.25;;;0.60;;
49440;SDS011;35317;51.978;6.296;2023-03-23T08:08:32;0.60;;;0.38;;
49440;SDS011;35317;51.978;6.296;2023-03-23T08:13:33;1.73;;;0.70;;
49440;SDS011;35317;51.978;6.296;2023-03-23T08:18:35;2.28;;;1.02;;
49440;SDS011;35317;51.978;6.296;2023-03-23T08:23:39;1.10;;;0.68;;
49440;SDS011;35317;51.978;6.296;2023-03-23T08:28:39;2.88;;;1.08;;
49440;SDS011;35317;51.978;6.296;2023-03-23T08:33:42;3.08;;;0.93;;
49440;SDS011;35317;51.978;6.296;2023-03-23T08:38:43;4.22;;;1.05;;
49440;SDS011;35317;51.978;6.296;2023-03-23T08:43:44;1.85;;;0.80;;
49440;SDS011;35317;51.978;6.296;2023-03-23T08:48:45;2.45;;;0.93;;
49440;SDS011;35317;51.978;6.296;2023-03-23T08:53:47;0.73;;;0.55;;
49440;SDS011;35317;51.978;6.296;2023-03-23T08:58:48;3.15;;;0.88;;
49440;SDS011;35317;51.978;6.296;2023-03-23T09:03:49;3.22;;;1.10;;
49440;SDS011;35317;51.978;6.296;2023-03-23T09:08:50;0.90;;;0.77;;
49440;SDS011;35317;51.978;6.296;2023-03-23T09:14:07;1.85;;;0.68;;
49440;SDS011;35317;51.978;6.296;2023-03-23T09:19:08;1.00;;;0.90;;
49440;SDS011;35317;51.978;6.296;2023-03-23T09:24:09;2.13;;;0.80;;
49440;SDS011;35317;51.978;6.296;2023-03-23T09:29:10;0.60;;;0.30;;
49440;SDS011;35317;51.978;6.296;2023-03-23T09:34:13;1.23;;;0.40;;
49440;SDS011;35317;51.978;6.296;2023-03-23T09:39:15;0.63;;;0.28;;
49440;SDS011;35317;51.978;6.296;2023-03-23T09:44:21;0.93;;;0.40;;
49440;SDS011;35317;51.978;6.296;2023-03-23T09:49:54;0.73;;;0.40;;
49440;SDS011;35317;51.978;6.296;2023-03-23T09:55:00;1.65;;;0.40;;
49440;SDS011;35317;51.978;6.296;2023-03-23T10:00:16;1.35;;;0.50;;
49440;SDS011;35317;51.978;6.296;2023-03-23T10:15:56;1.80;;;0.40;;
49440;SDS011;35317;51.978;6.296;2023-03-23T10:20:58;3.08;;;0.60;;
49440;SDS011;35317;51.978;6.296;2023-03-23T10:26:13;3.08;;;0.70;;
49440;SDS011;35317;51.978;6.296;2023-03-23T10:31:47;3.30;;;0.65;;
49440;SDS011;35317;51.978;6.296;2023-03-23T10:37:11;4.32;;;0.63;;
49440;SDS011;35317;51.978;6.296;2023-03-23T10:42:25;1.13;;;0.40;;
49440;SDS011;35317;51.978;6.296;2023-03-23T10:47:32;5.40;;;1.27;;
49440;SDS011;35317;51.978;6.296;2023-03-23T10:52:39;3.08;;;0.60;;
49440;SDS011;35317;51.978;6.296;2023-03-23T10:57:43;3.25;;;0.90;;
49440;SDS011;35317;51.978;6.296;2023-03-23T11:02:56;4.10;;;0.70;;
49440;SDS011;35317;51.978;6.296;2023-03-23T11:08:22;2.10;;;0.70;;
49440;SDS011;35317;51.978;6.296;2023-03-23T11:13:31;2.65;;;0.70;;
49440;SDS011;35317;51.978;6.296;2023-03-23T11:18:37;1.90;;;0.75;;
49440;SDS011;35317;51.978;6.296;2023-03-23T11:23:41;1.35;;;0.52;;
49440;SDS011;35317;51.978;6.296;2023-03-23T11:34:16;3.28;;;0.57;;
49440;SDS011;35317;51.978;6.296;2023-03-23T11:39:45;2.63;;;0.60;;
49440;SDS011;35317;51.978;6.296;2023-03-23T11:45:07;1.05;;;0.55;;
49440;SDS011;35317;51.978;6.296;2023-03-23T11:50:24;1.40;;;0.60;;
49440;SDS011;35317;51.978;6.296;2023-03-23T12:06:26;3.70;;;0.97;;
49440;SDS011;35317;51.978;6.296;2023-03-23T12:22:28;1.80;;;0.80;;
49440;SDS011;35317;51.978;6.296;2023-03-23T12:33:27;0.95;;;0.60;;
49440;SDS011;35317;51.978;6.296;2023-03-23T12:44:10;3.22;;;0.70;;
49440;SDS011;35317;51.978;6.296;2023-03-23T12:54:48;2.30;;;0.85;;
49440;SDS011;35317;51.978;6.296;2023-03-23T13:00:16;1.90;;;0.68;;
49440;SDS011;35317;51.978;6.296;2023-03-23T13:05:34;2.97;;;0.77;;
49440;SDS011;35317;51.978;6.296;2023-03-23T13:10:55;1.83;;;0.50;;
49440;SDS011;35317;51.978;6.296;2023-03-23T13:16:09;0.60;;;0.45;;
49440;SDS011;35317;51.978;6.296;2023-03-23T13:22:36;1.00;;;0.50;;
49440;SDS011;35317;51.978;6.296;2023-03-23T13:27:14;1.77;;;0.55;;
49440;SDS011;35317;51.978;6.296;2023-03-23T13:32:17;0.85;;;0.50;;
49440;SDS011;35317;51.978;6.296;2023-03-23T13:37:23;2.73;;;0.70;;
49440;SDS011;35317;51.978;6.296;2023-03-23T13:42:26;2.72;;;0.60;;
49440;SDS011;35317;51.978;6.296;2023-03-23T13:47:35;0.80;;;0.32;;
49440;SDS011;35317;51.978;6.296;2023-03-23T13:57:52;0.52;;;0.50;;
49440;SDS011;35317;51.978;6.296;2023-03-23T14:03:05;1.33;;;0.60;;
49440;SDS011;35317;51.978;6.296;2023-03-23T14:08:25;0.93;;;0.52;;
49440;SDS011;35317;51.978;6.296;2023-03-23T14:19:14;1.45;;;0.80;;
49440;SDS011;35317;51.978;6.296;2023-03-23T14:24:33;2.70;;;0.95;;
49440;SDS011;35317;51.978;6.296;2023-03-23T14:29:39;1.92;;;0.70;;
49440;SDS011;35317;51.978;6.296;2023-03-23T14:34:41;2.28;;;0.90;;
49440;SDS011;35317;51.978;6.296;2023-03-23T14:39:44;1.13;;;0.80;;
49440;SDS011;35317;51.978;6.296;2023-03-23T14:44:48;1.58;;;0.73;;
49440;SDS011;35317;51.978;6.296;2023-03-23T14:49:57;1.33;;;0.80;;
49440;SDS011;35317;51.978;6.296;2023-03-23T14:55:34;2.67;;;0.77;;
49440;SDS011;35317;51.978;6.296;2023-03-23T15:00:32;1.75;;;0.70;;
49440;SDS011;35317;51.978;6.296;2023-03-23T15:05:50;2.95;;;1.00;;
49440;SDS011;35317;51.978;6.296;2023-03-23T15:16:19;5.40;;;0.80;;
49440;SDS011;35317;51.978;6.296;2023-03-23T15:21:26;1.20;;;0.60;;
49440;SDS011;35317;51.978;6.296;2023-03-23T15:26:42;1.25;;;0.80;;
49440;SDS011;35317;51.978;6.296;2023-03-23T15:31:46;0.80;;;0.40;;
49440;SDS011;35317;51.978;6.296;2023-03-23T15:36:58;2.58;;;0.65;;
49440;SDS011;35317;51.978;6.296;2023-03-23T15:42:04;3.45;;;0.80;;
49440;SDS011;35317;51.978;6.296;2023-03-23T15:47:13;1.05;;;0.60;;
49440;SDS011;35317;51.978;6.296;2023-03-23T15:52:17;2.15;;;0.47;;
49440;SDS011;35317;51.978;6.296;2023-03-23T15:57:18;2.08;;;0.70;;
49440;SDS011;35317;51.978;6.296;2023-03-23T16:02:20;1.63;;;0.70;;
49440;SDS011;35317;51.978;6.296;2023-03-23T16:07:33;2.25;;;0.88;;
49440;SDS011;35317;51.978;6.296;2023-03-23T16:12:34;3.47;;;0.82;;
49440;SDS011;35317;51.978;6.296;2023-03-23T16:17:35;1.50;;;0.68;;
49440;SDS011;35317;51.978;6.296;2023-03-23T16:22:35;1.95;;;0.70;;
49440;SDS011;35317;51.978;6.296;2023-03-23T16:27:37;1.92;;;0.60;;
49440;SDS011;35317;51.978;6.296;2023-03-23T16:32:39;3.90;;;1.10;;
49440;SDS011;35317;51.978;6.296;2023-03-23T16:37:44;3.38;;;1.10;;
49440;SDS011;35317;51.978;6.296;2023-03-23T16:42:47;2.28;;;0.88;;
49440;SDS011;35317;51.978;6.296;2023-03-23T16:47:49;2.30;;;0.80;;
49440;SDS011;35317;51.978;6.296;2023-03-23T16:52:50;1.70;;;1.02;;
49440;SDS011;35317;51.978;6.296;2023-03-23T16:57:51;3.10;;;1.10;;
49440;SDS011;35317;51.978;6.296;2023-03-23T17:02:54;4.05;;;1.55;;
49440;SDS011;35317;51.978;6.296;2023-03-23T17:07:58;2.10;;;1.17;;
49440;SDS011;35317;51.978;6.296;2023-03-23T17:12:59;3.63;;;1.77;;
49440;SDS011;35317;51.978;6.296;2023-03-23T17:18:00;4.15;;;1.50;;
49440;SDS011;35317;51.978;6.296;2023-03-23T17:23:01;2.40;;;1.10;;
49440;SDS011;35317;51.978;6.296;2023-03-23T17:28:03;2.92;;;1.55;;
49440;SDS011;35317;51.978;6.296;2023-03-23T17:33:04;2.60;;;1.60;;
49440;SDS011;35317;51.978;6.296;2023-03-23T17:38:05;4.03;;;1.52;;
49440;SDS011;35317;51.978;6.296;2023-03-23T17:43:06;2.90;;;1.38;;
49440;SDS011;35317;51.978;6.296;2023-03-23T17:48:06;3.28;;;1.70;;
49440;SDS011;35317;51.978;6.296;2023-03-23T17:53:07;1.92;;;1.52;;
49440;SDS011;35317;51.978;6.296;2023-03-23T17:58:08;5.00;;;1.67;;
49440;SDS011;35317;51.978;6.296;2023-03-23T18:03:09;3.78;;;1.80;;
49440;SDS011;35317;51.978;6.296;2023-03-23T18:08:10;3.00;;;1.73;;
49440;SDS011;35317;51.978;6.296;2023-03-23T18:13:11;3.22;;;1.95;;
49440;SDS011;35317;51.978;6.296;2023-03-23T18:18:12;4.00;;;2.35;;
49440;SDS011;35317;51.978;6.296;2023-03-23T18:23:13;2.83;;;1.70;;
49440;SDS011;35317;51.978;6.296;2023-03-23T18:28:13;5.15;;;2.10;;
49440;SDS011;35317;51.978;6.296;2023-03-23T18:33:15;2.60;;;1.70;;
49440;SDS011;35317;51.978;6.296;2023-03-23T18:38:18;5.70;;;1.93;;
49440;SDS011;35317;51.978;6.296;2023-03-23T18:43:18;6.47;;;2.00;;
49440;SDS011;35317;51.978;6.296;2023-03-23T18:48:19;3.60;;;2.08;;
49440;SDS011;35317;51.978;6.296;2023-03-23T18:53:22;3.25;;;1.50;;
49440;SDS011;35317;51.978;6.296;2023-03-23T18:58:24;2.95;;;1.48;;
49440;SDS011;35317;51.978;6.296;2023-03-23T19:03:25;2.33;;;1.48;;
49440;SDS011;35317;51.978;6.296;2023-03-23T19:08:26;3.22;;;1.40;;
49440;SDS011;35317;51.978;6.296;2023-03-23T19:13:28;1.73;;;1.52;;
49440;SDS011;35317;51.978;6.296;2023-03-23T19:18:33;3.53;;;1.60;;
49440;SDS011;35317;51.978;6.296;2023-03-23T19:23:34;2.97;;;1.67;;
49440;SDS011;35317;51.978;6.296;2023-03-23T19:28:35;3.00;;;1.45;;
49440;SDS011;35317;51.978;6.296;2023-03-23T19:33:36;3.53;;;1.30;;
49440;SDS011;35317;51.978;6.296;2023-03-23T19:38:37;3.33;;;1.50;;
49440;SDS011;35317;51.978;6.296;2023-03-23T19:43:38;2.88;;;1.30;;
49440;SDS011;35317;51.978;6.296;2023-03-23T19:48:38;4.18;;;1.25;;
49440;SDS011;35317;51.978;6.296;2023-03-23T19:53:39;2.40;;;1.25;;
49440;SDS011;35317;51.978;6.296;2023-03-23T19:58:40;4.20;;;1.33;;
49440;SDS011;35317;51.978;6.296;2023-03-23T20:03:41;2.30;;;1.10;;
49440;SDS011;35317;51.978;6.296;2023-03-23T20:08:43;2.28;;;1.13;;
49440;SDS011;35317;51.978;6.296;2023-03-23T20:13:46;3.78;;;1.40;;
49440;SDS011;35317;51.978;6.296;2023-03-23T20:18:47;1.83;;;1.20;;
49440;SDS011;35317;51.978;6.296;2023-03-23T20:23:50;3.75;;;1.50;;
49440;SDS011;35317;51.978;6.296;2023-03-23T20:28:53;2.53;;;1.20;;
49440;SDS011;35317;51.978;6.296;2023-03-23T20:33:57;2.72;;;1.63;;
49440;SDS011;35317;51.978;6.296;2023-03-23T20:39:02;2.40;;;1.10;;
49440;SDS011;35317;51.978;6.296;2023-03-23T20:44:08;4.97;;;1.63;;
49440;SDS011;35317;51.978;6.296;2023-03-23T20:49:12;3.92;;;1.50;;
49440;SDS011;35317;51.978;6.296;2023-03-23T20:54:15;2.78;;;1.15;;
49440;SDS011;35317;51.978;6.296;2023-03-23T20:59:19;3.60;;;1.15;;
49440;SDS011;35317;51.978;6.296;2023-03-23T21:04:22;1.80;;;0.90;;
49440;SDS011;35317;51.978;6.296;2023-03-23T21:09:26;2.55;;;1.17;;
49440;SDS011;35317;51.978;6.296;2023-03-23T21:14:26;5.70;;;1.33;;
49440;SDS011;35317;51.978;6.296;2023-03-23T21:19:28;2.75;;;1.45;;
49440;SDS011;35317;51.978;6.296;2023-03-23T21:24:29;2.13;;;1.30;;
49440;SDS011;35317;51.978;6.296;2023-03-23T21:29:31;2.05;;;1.25;;
49440;SDS011;35317;51.978;6.296;2023-03-23T21:34:32;2.70;;;1.70;;
49440;SDS011;35317;51.978;6.296;2023-03-23T21:39:33;1.92;;;0.95;;
49440;SDS011;35317;51.978;6.296;2023-03-23T21:44:34;2.78;;;1.30;;
49440;SDS011;35317;51.978;6.296;2023-03-23T21:49:35;2.58;;;1.25;;
49440;SDS011;35317;51.978;6.296;2023-03-23T21:54:36;2.80;;;1.20;;
49440;SDS011;35317;51.978;6.296;2023-03-23T21:59:37;3.40;;;1.33;;
49440;SDS011;35317;51.978;6.296;2023-03-23T22:04:37;2.95;;;1.35;;
49440;SDS011;35317;51.978;6.296;2023-03-23T22:09:39;3.38;;;1.40;;
49440;SDS011;35317;51.978;6.296;2023-03-23T22:14:44;3.75;;;1.20;;
49440;SDS011;35317;51.978;6.296;2023-03-23T22:19:45;5.43;;;1.50;;
49440;SDS011;35317;51.978;6.296;2023-03-23T22:24:48;4.35;;;1.45;;
49440;SDS011;35317;51.978;6.296;2023-03-23T22:29:50;3.30;;;1.48;;
49440;SDS011;35317;51.978;6.296;2023-03-23T22:34:51;3.90;;;1.52;;
49440;SDS011;35317;51.978;6.296;2023-03-23T22:39:52;2.42;;;1.20;;
49440;SDS011;35317;51.978;6.296;2023-03-23T22:44:53;2.15;;;1.20;;
49440;SDS011;35317;51.978;6.296;2023-03-23T22:49:54;2.50;;;1.27;;
49440;SDS011;35317;51.978;6.296;2023-03-23T22:54:54;1.20;;;0.65;;
49440;SDS011;35317;51.978;6.296;2023-03-23T22:59:55;1.27;;;0.90;;
49440;SDS011;35317;51.978;6.296;2023-03-23T23:04:56;4.13;;;1.15;;
49440;SDS011;35317;51.978;6.296;2023-03-23T23:09:57;3.25;;;1.00;;
49440;SDS011;35317;51.978;6.296;2023-03-23T23:14:58;2.40;;;1.30;;
49440;SDS011;35317;51.978;6.296;2023-03-23T23:19:59;2.58;;;1.60;;
49440;SDS011;35317;51.978;6.296;2023-03-23T23:25:00;3.30;;;1.83;;
49440;SDS011;35317;51.978;6.296;2023-03-23T23:30:01;2.08;;;1.38;;
49440;SDS011;35317;51.978;6.296;2023-03-23T23:35:05;2.40;;;1.10;;
49440;SDS011;35317;51.978;6.296;2023-03-23T23:40:06;2.10;;;1.00;;
49440;SDS011;35317;51.978;6.296;2023-03-23T23:45:08;1.70;;;0.98;;
49440;SDS011;35317;51.978;6.296;2023-03-23T23:50:10;2.42;;;1.30;;
49440;SDS011;35317;51.978;6.296;2023-03-23T23:55:13;1.90;;;1.08;;
